Time;durP1;ratioP1;P1;durP2;ratioP2;P2;SDS_P1;SDS_P2;PMS_P1;PMS_P2;Temp;Humidity;BMP_temperature;BMP_pressure;BME280_temperature;BME280_humidity;BME280_pressure;Samples;Min_cycle;Max_cycle;Signal;HPM_P1;HPM_P2
2022/08/12 00:44:55;;;;;;;9.50;7.72;;;;;;;;;;5072134;28;20028;-47
2022/08/12 00:47:21;;;;;;;9.07;8.07;;;;;;;;;;5066671;28;20032;-47
2022/08/12 00:49:51;;;;;;;11.35;7.88;;;;;;;;;;5068476;28;20041;-46
2022/08/12 00:52:18;;;;;;;8.60;7.68;;;;;;;;;;5064307;28;20021;-46
2022/08/12 00:54:46;;;;;;;9.32;8.35;;;;;;;;;;5070708;28;20032;-46
2022/08/12 00:57:23;;;;;;;9.82;8.45;;;;;;;;;;5068412;28;20130;-46
2022/08/12 00:59:59;;;;;;;11.77;8.23;;;;;;;;;;5064522;28;20051;-48
2022/08/12 01:02:28;;;;;;;11.07;8.32;;;;;;;;;;5067976;28;20033;-46
2022/08/12 01:13:17;;;;;;;14.45;8.15;;;;;;;;;;5068345;28;20020;-46
2022/08/12 01:15:44;;;;;;;10.23;7.72;;;;;;;;;;5072540;28;20024;-45
2022/08/12 01:18:15;;;;;;;9.10;8.10;;;;;;;;;;5064998;28;20078;-47
2022/08/12 01:20:46;;;;;;;9.30;8.30;;;;;;;;;;5067287;28;20024;-45
2022/08/12 01:23:36;;;;;;;9.77;7.78;;;;;;;;;;5068881;28;20028;-47
2022/08/12 01:26:05;;;;;;;8.35;7.40;;;;;;;;;;5064559;28;20115;-47
2022/08/12 01:28:33;;;;;;;16.08;7.90;;;;;;;;;;5067577;28;20408;-47
2022/08/12 01:31:04;;;;;;;10.80;7.75;;;;;;;;;;5066539;28;20040;-46
2022/08/12 01:33:39;;;;;;;9.40;8.45;;;;;;;;;;5070313;28;20024;-48
2022/08/12 01:36:09;;;;;;;8.60;7.78;;;;;;;;;;5068613;28;20116;-49
2022/08/12 01:38:37;;;;;;;8.80;7.97;;;;;;;;;;5065356;28;20481;-47
2022/08/12 01:41:04;;;;;;;11.23;8.18;;;;;;;;;;5066393;28;20542;-49
2022/08/12 01:43:30;;;;;;;8.45;7.63;;;;;;;;;;5065754;28;20086;-50
2022/08/12 01:46:13;;;;;;;9.45;7.47;;;;;;;;;;5067573;28;20027;-46
2022/08/12 01:49:00;;;;;;;8.40;7.63;;;;;;;;;;5065744;28;20029;-47
2022/08/12 01:51:41;;;;;;;8.35;7.32;;;;;;;;;;5065576;28;20115;-45
2022/08/12 01:54:16;;;;;;;10.05;7.70;;;;;;;;;;5063565;28;20029;-49
2022/08/12 01:56:54;;;;;;;8.25;7.47;;;;;;;;;;5064688;28;20033;-45
2022/08/12 01:59:45;;;;;;;8.88;7.97;;;;;;;;;;5064336;28;20031;-45
2022/08/12 02:02:21;;;;;;;10.65;7.32;;;;;;;;;;5063138;28;20504;-46
2022/08/12 02:11:17;;;;;;;9.18;7.43;;;;;;;;;;5064878;28;20111;-47
2022/08/12 02:14:05;;;;;;;8.35;7.28;;;;;;;;;;5065939;28;20031;-45
2022/08/12 02:16:52;;;;;;;8.32;7.53;;;;;;;;;;5067688;28;20035;-45
2022/08/12 02:19:56;;;;;;;9.50;7.90;;;;;;;;;;5064936;28;20036;-46
2022/08/12 02:22:33;;;;;;;10.52;7.60;;;;;;;;;;5046790;28;20060;-47
2022/08/12 02:25:15;;;;;;;10.95;7.88;;;;;;;;;;5047289;28;20051;-46
2022/08/12 02:27:45;;;;;;;8.18;6.75;;;;;;;;;;5043658;28;20033;-48
2022/08/12 02:30:15;;;;;;;10.52;7.35;;;;;;;;;;5045692;28;20028;-45
2022/08/12 02:32:43;;;;;;;10.50;7.65;;;;;;;;;;5048281;28;20032;-45
2022/08/12 02:35:13;;;;;;;11.00;7.70;;;;;;;;;;5044947;28;20033;-48
2022/08/12 02:37:41;;;;;;;9.85;7.35;;;;;;;;;;5046612;28;20052;-47
2022/08/12 02:40:09;;;;;;;8.80;7.30;;;;;;;;;;5046985;28;20033;-47
2022/08/12 02:42:37;;;;;;;9.43;7.07;;;;;;;;;;5044642;28;20455;-47
2022/08/12 02:45:07;;;;;;;9.38;7.03;;;;;;;;;;5045793;28;20040;-46
2022/08/12 02:47:39;;;;;;;7.75;6.95;;;;;;;;;;5044617;28;20400;-45
2022/08/12 02:50:06;;;;;;;7.80;7.10;;;;;;;;;;5048372;28;20497;-45
2022/08/12 02:52:33;;;;;;;7.35;6.65;;;;;;;;;;5043908;28;20045;-47
2022/08/12 02:55:08;;;;;;;27.85;7.70;;;;;;;;;;5043212;28;20095;-48
2022/08/12 02:57:34;;;;;;;7.43;6.72;;;;;;;;;;5052909;28;20045;-48
2022/08/12 03:00:03;;;;;;;6.70;6.20;;;;;;;;;;5064732;28;20043;-45
2022/08/12 03:02:32;;;;;;;7.32;6.63;;;;;;;;;;5064246;28;20031;-48
2022/08/12 03:05:01;;;;;;;7.70;6.97;;;;;;;;;;5064579;28;20032;-45
2022/08/12 03:07:36;;;;;;;7.82;7.03;;;;;;;;;;5067517;28;20025;-47
2022/08/12 03:10:08;;;;;;;9.00;6.97;;;;;;;;;;5065020;28;20029;-48
2022/08/12 03:12:38;;;;;;;8.23;6.65;;;;;;;;;;5066453;28;20024;-45
2022/08/12 03:15:11;;;;;;;9.20;6.60;;;;;;;;;;5066744;28;20037;-48
2022/08/12 03:17:43;;;;;;;9.02;6.85;;;;;;;;;;5069258;28;20114;-47
2022/08/12 03:20:13;;;;;;;9.27;6.10;;;;;;;;;;5062096;28;20167;-46
2022/08/12 03:22:41;;;;;;;8.95;6.68;;;;;;;;;;5066477;28;20048;-45
2022/08/12 03:25:26;;;;;;;7.85;6.95;;;;;;;;;;5066528;28;20494;-45
2022/08/12 03:27:54;;;;;;;9.82;6.75;;;;;;;;;;5065970;28;20036;-48
2022/08/12 03:30:26;;;;;;;9.52;7.22;;;;;;;;;;5062264;28;20389;-46
2022/08/12 03:32:54;;;;;;;7.63;6.97;;;;;;;;;;5065368;28;20539;-47
2022/08/12 03:35:26;;;;;;;10.57;6.43;;;;;;;;;;5059751;28;20025;-47
2022/08/12 03:37:58;;;;;;;8.48;6.80;;;;;;;;;;5061633;28;20363;-45
2022/08/12 04:00:23;;;;;;;7.63;6.90;;;;;;;;;;5067834;28;20025;-47
2022/08/12 04:02:57;;;;;;;7.43;6.65;;;;;;;;;;5066989;28;20025;-48
2022/08/12 04:05:24;;;;;;;7.55;6.57;;;;;;;;;;5067743;28;20444;-45
2022/08/12 04:07:52;;;;;;;7.57;6.97;;;;;;;;;;5068109;28;20081;-47
2022/08/12 04:10:18;;;;;;;7.80;7.03;;;;;;;;;;5067359;28;20059;-45
2022/08/12 04:16:00;;;;;;;8.73;6.72;;;;;;;;;;5066687;28;20056;-45
2022/08/12 04:18:46;;;;;;;7.97;6.78;;;;;;;;;;5067954;28;20042;-46
2022/08/12 04:21:32;;;;;;;11.18;6.70;;;;;;;;;;5069239;28;20044;-47
2022/08/12 04:24:19;;;;;;;7.32;6.63;;;;;;;;;;5065948;28;20031;-45
2022/08/12 04:27:09;;;;;;;11.48;7.15;;;;;;;;;;5068491;28;20040;-47
2022/08/12 04:29:56;;;;;;;9.13;6.90;;;;;;;;;;5065771;28;20045;-47
2022/08/12 04:32:41;;;;;;;10.15;7.03;;;;;;;;;;5067569;28;20052;-45
2022/08/12 04:35:26;;;;;;;8.65;6.88;;;;;;;;;;5069595;28;20078;-45
2022/08/12 04:38:10;;;;;;;9.25;6.93;;;;;;;;;;5068324;28;20553;-47
2022/08/12 04:40:54;;;;;;;8.18;6.72;;;;;;;;;;5064267;28;20064;-45
2022/08/12 04:43:21;;;;;;;10.52;6.90;;;;;;;;;;5072015;28;20043;-45
2022/08/12 04:45:48;;;;;;;8.18;6.47;;;;;;;;;;5070067;28;20531;-48
2022/08/12 04:48:14;;;;;;;11.48;7.00;;;;;;;;;;5070686;28;20039;-45
2022/08/12 04:50:40;;;;;;;12.07;7.13;;;;;;;;;;5069068;28;20050;-46
2022/08/12 04:53:07;;;;;;;9.73;7.47;;;;;;;;;;5068109;28;20111;-47
2022/08/12 04:55:33;;;;;;;13.75;7.25;;;;;;;;;;5067459;28;20036;-49
2022/08/12 04:57:59;;;;;;;18.58;6.80;;;;;;;;;;5067862;28;20504;-46
2022/08/12 05:00:26;;;;;;;10.50;6.20;;;;;;;;;;5071025;28;20032;-47
2022/08/12 05:02:52;;;;;;;9.35;7.00;;;;;;;;;;5066008;28;20031;-48
2022/08/12 05:05:21;;;;;;;7.07;6.40;;;;;;;;;;5066100;28;20041;-45
2022/08/12 05:07:48;;;;;;;11.40;6.82;;;;;;;;;;5068602;28;20036;-46
2022/08/12 05:10:15;;;;;;;8.70;6.75;;;;;;;;;;5069693;28;20049;-47
2022/08/12 05:12:44;;;;;;;7.43;6.72;;;;;;;;;;5067340;28;20056;-49
2022/08/12 05:15:12;;;;;;;8.68;6.85;;;;;;;;;;5066827;28;20035;-48
2022/08/12 05:17:40;;;;;;;10.98;7.22;;;;;;;;;;5065166;28;20033;-47
2022/08/12 05:20:14;;;;;;;9.27;6.28;;;;;;;;;;5067878;28;20040;-44
2022/08/12 05:22:40;;;;;;;7.05;6.35;;;;;;;;;;5067374;28;20029;-47
2022/08/12 05:25:07;;;;;;;9.10;6.25;;;;;;;;;;5067370;28;20048;-45
2022/08/12 05:27:33;;;;;;;10.43;6.13;;;;;;;;;;5069453;28;20028;-46
2022/08/12 05:29:59;;;;;;;8.23;6.63;;;;;;;;;;5069919;28;20082;-45
2022/08/12 05:32:27;;;;;;;12.35;6.15;;;;;;;;;;5065268;28;20432;-46
2022/08/12 05:34:53;;;;;;;14.55;6.40;;;;;;;;;;5067401;28;20048;-45
2022/08/12 05:37:22;;;;;;;12.88;6.85;;;;;;;;;;5064617;28;20033;-48
2022/08/12 05:39:48;;;;;;;13.73;6.53;;;;;;;;;;5061067;28;20035;-45
2022/08/12 05:42:13;;;;;;;8.07;6.32;;;;;;;;;;5069447;28;20024;-47
2022/08/12 05:44:39;;;;;;;6.30;5.75;;;;;;;;;;5068362;28;20025;-45
2022/08/12 05:47:05;;;;;;;11.50;5.45;;;;;;;;;;5067789;28;20039;-46
2022/08/12 05:49:33;;;;;;;8.43;5.80;;;;;;;;;;5065320;28;20028;-45
2022/08/12 05:52:00;;;;;;;6.47;5.88;;;;;;;;;;5064649;28;20071;-46
2022/08/12 05:54:26;;;;;;;6.88;5.85;;;;;;;;;;5066447;28;20027;-46
2022/08/12 05:56:52;;;;;;;6.28;5.68;;;;;;;;;;5065369;28;20037;-46
2022/08/12 05:59:20;;;;;;;8.40;6.00;;;;;;;;;;5067107;28;20063;-45
2022/08/12 06:01:46;;;;;;;11.13;6.03;;;;;;;;;;5063932;28;20120;-48
2022/08/12 06:04:13;;;;;;;6.07;5.03;;;;;;;;;;5066623;28;20115;-45
2022/08/12 06:06:40;;;;;;;8.05;5.05;;;;;;;;;;5068118;28;20029;-45
2022/08/12 06:09:09;;;;;;;5.75;5.25;;;;;;;;;;5073957;28;20115;-45
2022/08/12 06:11:36;;;;;;;7.00;5.80;;;;;;;;;;5067568;28;20025;-48
2022/08/12 06:14:02;;;;;;;6.75;5.80;;;;;;;;;;5064643;28;20018;-45
2022/08/12 06:16:31;;;;;;;8.13;6.30;;;;;;;;;;5065524;28;20032;-48
2022/08/12 06:18:57;;;;;;;5.68;5.15;;;;;;;;;;5063442;28;20119;-45
2022/08/12 06:21:23;;;;;;;5.97;5.38;;;;;;;;;;5062857;28;20104;-44
2022/08/12 06:23:50;;;;;;;6.90;5.57;;;;;;;;;;5065090;28;20047;-45
2022/08/12 06:26:19;;;;;;;9.00;5.43;;;;;;;;;;5069280;28;20524;-48
2022/08/12 06:28:49;;;;;;;7.45;5.40;;;;;;;;;;5064016;28;20044;-47
2022/08/12 06:31:17;;;;;;;5.60;5.10;;;;;;;;;;5067847;28;20062;-45
2022/08/12 06:33:48;;;;;;;8.40;5.30;;;;;;;;;;5065349;28;20469;-45
2022/08/12 06:36:16;;;;;;;7.63;5.65;;;;;;;;;;5060938;28;20016;-47
2022/08/12 06:38:43;;;;;;;9.93;5.82;;;;;;;;;;5067011;28;20196;-46
2022/08/12 06:43:55;;;;;;;6.85;5.13;;;;;;;;;;5061802;28;20028;-45
2022/08/12 06:46:22;;;;;;;11.23;5.53;;;;;;;;;;5067021;28;20426;-47
2022/08/12 06:48:49;;;;;;;5.80;5.30;;;;;;;;;;5064788;28;20036;-47
2022/08/12 06:51:15;;;;;;;5.90;5.30;;;;;;;;;;5064463;28;20107;-49
2022/08/12 06:53:43;;;;;;;8.52;4.97;;;;;;;;;;5067580;28;20066;-47
2022/08/12 06:56:08;;;;;;;5.90;5.38;;;;;;;;;;5064633;28;20147;-46
2022/08/12 06:58:38;;;;;;;6.63;5.13;;;;;;;;;;5065884;28;20123;-45
2022/08/12 07:01:05;;;;;;;6.68;5.38;;;;;;;;;;5064583;28;20465;-45
2022/08/12 07:03:32;;;;;;;6.88;5.43;;;;;;;;;;5065031;28;20033;-51
2022/08/12 07:06:04;;;;;;;5.97;5.03;;;;;;;;;;5067133;28;20139;-46
2022/08/12 07:08:32;;;;;;;5.90;4.72;;;;;;;;;;5062341;28;20020;-45
2022/08/12 07:11:03;;;;;;;8.38;5.18;;;;;;;;;;5067516;28;20032;-47
2022/08/12 07:13:31;;;;;;;8.88;4.50;;;;;;;;;;5065634;28;20063;-46
2022/08/12 07:15:57;;;;;;;6.47;4.45;;;;;;;;;;5070724;28;20405;-45
2022/08/12 07:18:26;;;;;;;5.18;4.68;;;;;;;;;;5071256;28;20033;-46
2022/08/12 07:20:52;;;;;;;7.63;4.40;;;;;;;;;;5072103;28;20060;-46
2022/08/12 07:23:17;;;;;;;4.60;4.13;;;;;;;;;;5069750;28;20052;-47
2022/08/12 07:25:44;;;;;;;6.95;4.30;;;;;;;;;;5072619;28;20021;-47
2022/08/12 07:28:13;;;;;;;6.28;3.92;;;;;;;;;;5069435;28;20048;-46
2022/08/12 07:30:41;;;;;;;5.15;3.75;;;;;;;;;;5070471;28;20024;-45
2022/08/12 07:33:09;;;;;;;4.22;3.83;;;;;;;;;;5066841;28;20040;-46
2022/08/12 07:35:44;;;;;;;4.43;4.07;;;;;;;;;;5070592;28;20040;-46
2022/08/12 07:38:24;;;;;;;4.43;4.05;;;;;;;;;;5069544;28;20024;-45
2022/08/12 07:41:18;;;;;;;4.30;4.00;;;;;;;;;;5070420;28;20458;-51
2022/08/12 07:43:50;;;;;;;4.63;4.22;;;;;;;;;;5071515;28;20036;-46
2022/08/12 07:46:18;;;;;;;;;;;;;;;;;;5070920;28;20452;-44
2022/08/12 07:48:47;;;;;;;5.15;4.72;;;;;;;;;;5071210;28;19918;-46
2022/08/12 07:51:14;;;;;;;8.10;4.70;;;;;;;;;;5070113;28;22887;-49
2022/08/12 07:53:40;;;;;;;4.60;4.20;;;;;;;;;;5067744;28;20035;-46
2022/08/12 07:56:08;;;;;;;4.45;4.05;;;;;;;;;;5071515;28;20033;-45
2022/08/12 07:58:38;;;;;;;5.30;4.40;;;;;;;;;;5072149;28;20041;-50
2022/08/12 08:01:09;;;;;;;4.63;4.10;;;;;;;;;;5068413;28;20025;-52
2022/08/12 08:04:54;;;;;;;4.43;4.00;;;;;;;;;;5071087;28;20021;-48
2022/08/12 08:06:23;;;;;;;4.22;3.90;;;;;;;;;;5066203;28;20025;-49
2022/08/12 08:08:49;;;;;;;4.88;4.07;;;;;;;;;;5065527;28;20040;-46
2022/08/12 08:14:03;;;;;;;4.47;3.45;;;;;;;;;;5068155;28;20043;-46
2022/08/12 08:16:28;;;;;;;8.55;4.07;;;;;;;;;;5069185;28;20024;-48
2022/08/12 08:18:54;;;;;;;5.30;4.10;;;;;;;;;;5070340;28;20063;-48
2022/08/12 08:21:20;;;;;;;4.38;4.00;;;;;;;;;;5069856;28;20033;-48
2022/08/12 08:26:31;;;;;;;4.20;3.90;;;;;;;;;;5069759;28;20030;-47
2022/08/12 08:28:58;;;;;;;4.38;3.97;;;;;;;;;;5067754;28;20477;-50
2022/08/12 08:31:24;;;;;;;6.35;4.13;;;;;;;;;;5067425;28;20041;-51
2022/08/12 08:33:50;;;;;;;9.85;4.18;;;;;;;;;;5067549;28;20031;-46
2022/08/12 08:36:16;;;;;;;4.07;3.60;;;;;;;;;;5064769;28;20484;-45
2022/08/12 08:38:44;;;;;;;4.07;3.78;;;;;;;;;;5070839;28;20393;-50
2022/08/12 08:43:58;;;;;;;6.10;3.80;;;;;;;;;;5067552;28;20032;-46
2022/08/12 08:46:25;;;;;;;4.68;4.03;;;;;;;;;;5066980;28;20028;-46
2022/08/12 08:48:52;;;;;;;6.13;3.97;;;;;;;;;;5067100;28;20024;-51
2022/08/12 08:51:18;;;;;;;5.50;3.97;;;;;;;;;;5068511;28;20037;-46
2022/08/12 08:53:44;;;;;;;6.50;4.10;;;;;;;;;;5065662;28;20042;-49
2022/08/12 08:56:10;;;;;;;5.45;4.25;;;;;;;;;;5066603;28;20044;-46
2022/08/12 08:58:37;;;;;;;8.73;4.00;;;;;;;;;;5068073;28;20040;-51
2022/08/12 09:01:04;;;;;;;4.13;3.80;;;;;;;;;;5065437;28;20374;-47
2022/08/12 09:03:29;;;;;;;11.43;4.07;;;;;;;;;;5070897;28;20043;-49
2022/08/12 09:05:55;;;;;;;5.28;3.97;;;;;;;;;;5070243;28;20119;-51
2022/08/12 09:08:21;;;;;;;4.53;4.22;;;;;;;;;;5065795;28;20056;-51
2022/08/12 09:10:48;;;;;;;9.35;3.95;;;;;;;;;;5067335;28;20063;-46
2022/08/12 09:13:31;;;;;;;4.50;4.10;;;;;;;;;;5066633;28;20024;-47
2022/08/12 09:15:57;;;;;;;7.38;4.20;;;;;;;;;;5069918;28;20120;-49
2022/08/12 09:18:23;;;;;;;7.32;4.55;;;;;;;;;;5066080;28;20107;-48
2022/08/12 09:20:49;;;;;;;7.68;4.30;;;;;;;;;;5067064;28;20035;-46
2022/08/12 09:23:16;;;;;;;5.38;4.40;;;;;;;;;;5070111;28;20020;-46
2022/08/12 09:25:43;;;;;;;7.72;4.57;;;;;;;;;;5068865;28;20064;-48
2022/08/12 09:28:10;;;;;;;6.00;4.57;;;;;;;;;;5064139;28;20025;-49
2022/08/12 09:30:38;;;;;;;5.88;4.72;;;;;;;;;;5067515;28;20024;-48
2022/08/12 09:33:05;;;;;;;6.63;4.47;;;;;;;;;;5067785;28;20040;-50
2022/08/12 09:35:39;;;;;;;6.25;4.13;;;;;;;;;;5067807;28;20063;-47
2022/08/12 09:38:06;;;;;;;4.35;3.97;;;;;;;;;;5064917;28;20075;-46
2022/08/12 09:40:32;;;;;;;7.75;4.45;;;;;;;;;;5065487;28;20079;-47
2022/08/12 09:45:47;;;;;;;4.03;3.75;;;;;;;;;;5068250;28;20485;-45
2022/08/12 09:48:16;;;;;;;4.67;4.37;;;;;;;;;;5070205;28;20476;-47
2022/08/12 09:50:44;;;;;;;4.40;4.00;;;;;;;;;;5066375;28;20469;-46
2022/08/12 09:53:21;;;;;;;7.30;4.65;;;;;;;;;;5064822;28;20040;-46
2022/08/12 09:55:52;;;;;;;7.00;4.75;;;;;;;;;;5065774;28;20108;-46
2022/08/12 09:58:30;;;;;;;5.13;4.72;;;;;;;;;;5065412;28;20127;-47
2022/08/12 10:01:03;;;;;;;5.53;5.07;;;;;;;;;;5064421;28;20509;-51
2022/08/12 10:03:31;;;;;;;5.55;4.88;;;;;;;;;;5064340;28;20025;-47
2022/08/12 10:05:58;;;;;;;10.00;4.95;;;;;;;;;;5067053;28;20039;-48
2022/08/12 10:08:29;;;;;;;5.13;4.60;;;;;;;;;;5081652;28;20127;-45
2022/08/12 10:13:43;;;;;;;5.60;4.55;;;;;;;;;;5063351;28;20067;-47
2022/08/12 10:16:22;;;;;;;8.23;4.70;;;;;;;;;;5071049;28;20466;-47
2022/08/12 10:18:54;;;;;;;8.63;4.10;;;;;;;;;;5065576;28;20596;-47
2022/08/12 10:21:36;;;;;;;8.50;4.35;;;;;;;;;;5063108;28;20527;-49
2022/08/12 10:24:03;;;;;;;6.22;4.70;;;;;;;;;;5065715;28;20025;-46
2022/08/12 10:31:59;;;;;;;7.40;4.72;;;;;;;;;;5068093;28;20110;-47
2022/08/12 10:34:26;;;;;;;9.32;5.28;;;;;;;;;;5063688;28;20537;-47
2022/08/12 10:36:57;;;;;;;8.45;4.93;;;;;;;;;;5066494;28;20041;-47
2022/08/12 10:39:25;;;;;;;8.35;4.47;;;;;;;;;;5065053;28;20028;-45
2022/08/12 10:44:36;;;;;;;7.85;5.07;;;;;;;;;;5069308;28;20082;-49
2022/08/12 10:47:03;;;;;;;10.45;5.50;;;;;;;;;;5070880;28;20032;-47
2022/08/12 10:49:33;;;;;;;7.03;4.90;;;;;;;;;;5067641;28;20062;-48
2022/08/12 10:52:03;;;;;;;7.57;4.70;;;;;;;;;;5061991;28;20575;-46
2022/08/12 10:54:29;;;;;;;9.02;4.97;;;;;;;;;;5062641;28;20016;-48
2022/08/12 10:56:56;;;;;;;7.22;4.90;;;;;;;;;;5068061;28;20056;-46
2022/08/12 10:59:23;;;;;;;6.45;5.47;;;;;;;;;;5067916;28;20110;-47
2022/08/12 11:01:52;;;;;;;6.50;4.90;;;;;;;;;;5065239;28;20037;-51
2022/08/12 11:04:18;;;;;;;6.80;4.95;;;;;;;;;;5069751;28;20017;-51
2022/08/12 11:06:49;;;;;;;9.68;5.05;;;;;;;;;;5064859;28;20703;-47
2022/08/12 11:09:16;;;;;;;;;;;;;;;;;;5063084;28;20036;-47
2022/08/12 11:11:48;;;;;;;8.77;5.43;;;;;;;;;;5064307;28;19917;-50
2022/08/12 11:14:16;;;;;;;7.57;4.70;;;;;;;;;;5066051;28;20020;-46
2022/08/12 11:16:45;;;;;;;10.20;5.13;;;;;;;;;;5062597;28;20028;-46
2022/08/12 11:19:13;;;;;;;6.93;4.43;;;;;;;;;;5066726;28;20060;-46
2022/08/12 11:21:39;;;;;;;5.25;4.78;;;;;;;;;;5066003;28;20025;-47
2022/08/12 11:24:05;;;;;;;5.32;4.82;;;;;;;;;;5063584;28;20484;-45
2022/08/12 11:26:32;;;;;;;5.28;4.70;;;;;;;;;;5066558;28;20489;-48
2022/08/12 11:28:57;;;;;;;8.52;5.00;;;;;;;;;;5066040;28;20043;-51
2022/08/12 11:31:23;;;;;;;5.03;4.63;;;;;;;;;;5065264;28;20029;-46
2022/08/12 11:33:49;;;;;;;10.18;5.43;;;;;;;;;;5064876;28;20032;-49
2022/08/12 11:36:16;;;;;;;5.43;4.93;;;;;;;;;;5066896;28;20465;-48
2022/08/12 11:38:42;;;;;;;6.93;5.05;;;;;;;;;;5067215;28;20360;-47
2022/08/12 11:41:07;;;;;;;4.88;4.40;;;;;;;;;;5064782;28;20036;-49
2022/08/12 11:43:33;;;;;;;5.28;4.70;;;;;;;;;;5061352;28;20020;-48
2022/08/12 11:45:59;;;;;;;5.97;4.70;;;;;;;;;;5065334;28;20065;-48
2022/08/12 11:48:25;;;;;;;4.82;4.43;;;;;;;;;;5071194;28;20062;-46
2022/08/12 11:50:51;;;;;;;9.23;4.45;;;;;;;;;;5065197;28;20025;-46
2022/08/12 11:53:17;;;;;;;10.25;4.47;;;;;;;;;;5063899;28;20021;-48
2022/08/12 11:55:42;;;;;;;6.57;4.90;;;;;;;;;;5066914;28;20489;-50
2022/08/12 11:58:08;;;;;;;6.55;4.60;;;;;;;;;;5065828;28;20128;-48
2022/08/12 12:00:34;;;;;;;9.05;4.65;;;;;;;;;;5065506;28;20032;-48
2022/08/12 12:03:00;;;;;;;5.30;4.65;;;;;;;;;;5069237;28;20028;-47
2022/08/12 12:05:25;;;;;;;5.25;4.35;;;;;;;;;;5071964;28;20174;-46
2022/08/12 12:07:51;;;;;;;8.82;4.38;;;;;;;;;;5069051;28;20052;-48
2022/08/12 12:10:18;;;;;;;4.57;4.15;;;;;;;;;;5066799;28;20469;-49
2022/08/12 12:12:45;;;;;;;9.40;4.65;;;;;;;;;;5071943;28;20086;-49
2022/08/12 12:15:11;;;;;;;8.93;4.18;;;;;;;;;;5069481;28;20031;-51
2022/08/12 12:17:40;;;;;;;5.45;4.40;;;;;;;;;;5068682;28;20098;-48
2022/08/12 12:20:08;;;;;;;8.35;5.07;;;;;;;;;;5066162;28;20032;-49
2022/08/12 12:22:39;;;;;;;9.38;4.88;;;;;;;;;;5067345;28;20112;-47
2022/08/12 12:25:05;;;;;;;6.05;5.07;;;;;;;;;;5066119;28;20170;-52
2022/08/12 12:27:53;;;;;;;5.18;4.47;;;;;;;;;;5069754;28;20051;-50
2022/08/12 12:30:19;;;;;;;8.60;4.50;;;;;;;;;;5066795;28;20028;-47
2022/08/12 12:32:45;;;;;;;4.60;4.10;;;;;;;;;;5070919;28;20028;-48
2022/08/12 12:35:11;;;;;;;9.40;4.10;;;;;;;;;;5070332;28;20170;-46
2022/08/12 12:37:57;;;;;;;8.98;4.30;;;;;;;;;;5068473;28;20033;-47
2022/08/12 12:40:24;;;;;;;5.43;4.10;;;;;;;;;;5067641;28;20090;-48
2022/08/12 12:42:50;;;;;;;5.15;4.63;;;;;;;;;;5070028;28;20032;-48
2022/08/12 12:45:16;;;;;;;5.20;4.40;;;;;;;;;;5075002;28;20070;-47
2022/08/12 12:47:54;;;;;;;5.70;4.30;;;;;;;;;;5066596;28;20029;-48
2022/08/12 12:50:20;;;;;;;6.30;5.10;;;;;;;;;;5071406;28;20123;-49
2022/08/12 12:52:46;;;;;;;11.48;4.70;;;;;;;;;;5067693;28;20107;-49
2022/08/12 12:55:14;;;;;;;11.80;4.32;;;;;;;;;;5066024;28;20423;-49
2022/08/12 12:57:41;;;;;;;16.55;4.68;;;;;;;;;;5070821;28;20094;-48
2022/08/12 13:00:14;;;;;;;8.77;4.43;;;;;;;;;;5069168;28;20055;-48
2022/08/12 13:02:56;;;;;;;6.00;4.18;;;;;;;;;;5071867;28;20478;-49
2022/08/12 13:05:27;;;;;;;7.13;4.47;;;;;;;;;;5067143;28;20047;-51
2022/08/12 13:07:56;;;;;;;6.45;4.60;;;;;;;;;;5069006;28;20063;-47
2022/08/12 13:10:22;;;;;;;6.60;4.47;;;;;;;;;;5069600;28;20033;-45
2022/08/12 13:12:49;;;;;;;11.57;4.88;;;;;;;;;;5069459;28;20521;-47
2022/08/12 13:15:15;;;;;;;4.78;4.03;;;;;;;;;;5069130;28;20028;-47
2022/08/12 13:17:44;;;;;;;7.30;4.13;;;;;;;;;;5069710;28;20107;-47
2022/08/12 13:20:12;;;;;;;9.52;4.80;;;;;;;;;;5066449;28;20032;-49
2022/08/12 13:22:37;;;;;;;5.85;4.35;;;;;;;;;;5066242;28;20025;-48
2022/08/12 13:25:03;;;;;;;10.20;4.40;;;;;;;;;;5067117;28;20652;-46
2022/08/12 13:27:35;;;;;;;7.47;4.35;;;;;;;;;;5066159;28;20039;-49
2022/08/12 13:30:02;;;;;;;5.45;4.57;;;;;;;;;;5065616;28;20070;-46
2022/08/12 13:32:29;;;;;;;9.73;4.75;;;;;;;;;;5066534;28;20082;-48
2022/08/12 13:34:55;;;;;;;8.13;4.13;;;;;;;;;;5070657;28;20469;-49
2022/08/12 13:37:23;;;;;;;13.13;4.15;;;;;;;;;;5066899;28;20028;-47
2022/08/12 13:39:50;;;;;;;7.00;3.85;;;;;;;;;;5065815;28;20175;-49
2022/08/12 13:42:21;;;;;;;8.50;4.63;;;;;;;;;;5066912;28;20388;-45
2022/08/12 13:44:52;;;;;;;15.25;4.40;;;;;;;;;;5063980;28;20028;-46
2022/08/12 13:47:20;;;;;;;7.18;4.25;;;;;;;;;;5063729;28;20051;-48
2022/08/12 13:49:55;;;;;;;8.68;4.57;;;;;;;;;;5070510;28;20024;-46
2022/08/12 13:52:22;;;;;;;7.05;4.18;;;;;;;;;;5065265;28;20032;-47
2022/08/12 13:54:47;;;;;;;7.80;4.70;;;;;;;;;;5065859;28;20020;-46
2022/08/12 13:57:14;;;;;;;8.88;4.72;;;;;;;;;;5065891;28;20078;-48
2022/08/12 13:59:43;;;;;;;7.80;4.18;;;;;;;;;;5063205;28;20028;-48
2022/08/12 14:02:11;;;;;;;10.57;4.65;;;;;;;;;;5067435;28;20483;-47
2022/08/12 14:04:40;;;;;;;4.82;4.30;;;;;;;;;;5065115;28;20392;-47
2022/08/12 14:07:07;;;;;;;7.13;4.40;;;;;;;;;;5068682;28;20086;-49
2022/08/12 14:10:35;;;;;;;4.00;3.70;;;;;;;;;;5063786;28;20027;-47
2022/08/12 14:12:18;;;;;;;5.00;4.10;;;;;;;;;;5065826;28;20499;-46
2022/08/12 14:14:49;;;;;;;5.22;4.55;;;;;;;;;;5068599;28;20025;-49
2022/08/12 14:17:16;;;;;;;7.00;4.35;;;;;;;;;;5066290;28;20024;-48
2022/08/12 14:20:12;;;;;;;8.10;4.63;;;;;;;;;;5062531;28;20094;-46
2022/08/12 14:22:28;;;;;;;8.68;4.25;;;;;;;;;;5067054;28;20036;-46
2022/08/12 14:24:54;;;;;;;11.85;4.35;;;;;;;;;;5065023;28;20043;-49
2022/08/12 14:27:22;;;;;;;4.53;4.13;;;;;;;;;;5066411;28;20043;-52
2022/08/12 14:29:48;;;;;;;5.53;3.83;;;;;;;;;;5061808;28;20488;-50
2022/08/12 14:32:15;;;;;;;4.50;4.07;;;;;;;;;;5066204;28;20039;-50
2022/08/12 14:34:42;;;;;;;4.45;4.00;;;;;;;;;;5065626;28;20029;-48
2022/08/12 14:37:08;;;;;;;7.28;4.50;;;;;;;;;;5065619;28;20031;-47
2022/08/12 14:39:33;;;;;;;4.38;3.78;;;;;;;;;;5066348;28;20028;-49
2022/08/12 14:41:59;;;;;;;7.28;4.45;;;;;;;;;;5063475;28;20469;-46
2022/08/12 14:44:24;;;;;;;5.93;4.20;;;;;;;;;;5067249;28;20059;-46
2022/08/12 14:46:54;;;;;;;6.90;4.15;;;;;;;;;;5066299;28;20390;-51
2022/08/12 14:49:20;;;;;;;6.50;4.00;;;;;;;;;;5064789;28;20028;-48
2022/08/12 14:51:45;;;;;;;7.60;4.07;;;;;;;;;;5065447;28;20468;-47
2022/08/12 14:54:13;;;;;;;11.10;4.07;;;;;;;;;;5065574;28;20029;-46
2022/08/12 14:56:40;;;;;;;11.75;4.05;;;;;;;;;;5062668;28;20108;-50
2022/08/12 15:01:51;;;;;;;16.42;4.43;;;;;;;;;;5067507;28;20497;-46
2022/08/12 15:04:27;;;;;;;8.30;3.88;;;;;;;;;;5066466;28;20036;-47
2022/08/12 15:06:53;;;;;;;7.63;4.22;;;;;;;;;;5067161;28;20032;-46
2022/08/12 15:09:20;;;;;;;4.10;3.70;;;;;;;;;;5069456;28;20370;-47
2022/08/12 15:11:48;;;;;;;7.15;4.00;;;;;;;;;;5067227;28;20025;-46
2022/08/12 15:14:14;;;;;;;6.70;3.90;;;;;;;;;;5064284;28;20033;-46
2022/08/12 15:16:39;;;;;;;6.78;4.10;;;;;;;;;;5064874;28;20021;-51
2022/08/12 15:19:05;;;;;;;6.47;4.30;;;;;;;;;;5062870;28;20473;-46
2022/08/12 15:21:31;;;;;;;8.32;4.38;;;;;;;;;;5064961;28;20051;-47
2022/08/12 15:23:57;;;;;;;8.50;3.83;;;;;;;;;;5064131;28;20025;-48
2022/08/12 15:26:23;;;;;;;7.97;4.72;;;;;;;;;;5064120;28;20115;-46
2022/08/12 15:28:49;;;;;;;9.05;4.20;;;;;;;;;;5064029;28;20071;-47
2022/08/12 15:31:17;;;;;;;7.20;4.40;;;;;;;;;;5069528;28;20036;-51
2022/08/12 15:33:44;;;;;;;5.35;4.00;;;;;;;;;;5064363;28;20135;-46
2022/08/12 15:36:14;;;;;;;4.57;3.95;;;;;;;;;;5067805;28;20037;-48
2022/08/12 15:38:40;;;;;;;7.13;4.30;;;;;;;;;;5065700;28;20052;-53
2022/08/12 15:41:07;;;;;;;8.38;3.80;;;;;;;;;;5069442;28;20024;-51
2022/08/12 15:43:33;;;;;;;5.65;4.20;;;;;;;;;;5070024;28;20032;-48
2022/08/12 15:46:00;;;;;;;9.20;4.10;;;;;;;;;;5066880;28;20025;-47
2022/08/12 15:48:27;;;;;;;10.65;3.95;;;;;;;;;;5069114;28;20119;-49
2022/08/12 15:50:53;;;;;;;11.77;3.92;;;;;;;;;;5067818;28;20037;-48
2022/08/12 15:54:03;;;;;;;8.45;4.15;;;;;;;;;;5065691;28;20059;-47
2022/08/12 15:56:07;;;;;;;8.77;4.13;;;;;;;;;;5067303;28;20101;-47
2022/08/12 15:58:42;;;;;;;8.48;3.72;;;;;;;;;;5069444;28;20692;-49
2022/08/12 16:01:13;;;;;;;8.05;4.00;;;;;;;;;;5068720;28;20064;-48
2022/08/12 16:03:48;;;;;;;9.43;4.30;;;;;;;;;;5062695;28;20039;-46
2022/08/12 16:06:14;;;;;;;12.70;3.85;;;;;;;;;;5067644;28;20108;-50
2022/08/12 16:08:40;;;;;;;8.82;3.90;;;;;;;;;;5070993;28;20568;-46
2022/08/12 16:11:08;;;;;;;4.68;3.40;;;;;;;;;;5065808;28;20028;-48
2022/08/12 16:13:34;;;;;;;5.20;3.42;;;;;;;;;;5067826;28;20025;-46
2022/08/12 16:16:02;;;;;;;7.88;3.88;;;;;;;;;;5070116;28;20424;-46
2022/08/12 16:18:30;;;;;;;5.53;3.80;;;;;;;;;;5066251;28;20748;-50
2022/08/12 16:20:55;;;;;;;10.85;3.90;;;;;;;;;;5066532;28;20055;-48
2022/08/12 16:23:21;;;;;;;6.70;3.55;;;;;;;;;;5071575;28;20513;-50
2022/08/12 16:25:48;;;;;;;5.47;3.53;;;;;;;;;;5066479;28;20381;-47
2022/08/12 16:28:14;;;;;;;4.35;3.50;;;;;;;;;;5075855;28;20154;-46
2022/08/12 16:30:41;;;;;;;7.85;3.75;;;;;;;;;;5067102;28;20104;-49
2022/08/12 16:33:15;;;;;;;11.30;4.18;;;;;;;;;;5070927;28;20029;-50
2022/08/12 16:35:46;;;;;;;6.35;3.85;;;;;;;;;;5067975;28;20024;-48
2022/08/12 16:38:12;;;;;;;8.27;3.90;;;;;;;;;;5069903;28;20127;-51
2022/08/12 16:40:43;;;;;;;14.63;4.03;;;;;;;;;;5068076;28;20059;-49
2022/08/12 16:43:31;;;;;;;10.65;4.35;;;;;;;;;;5065604;28;20151;-48